createdAt,value
2019-02-11T00:01:31.048Z,14.53
2019-02-11T00:04:00.045Z,20.27
2019-02-11T00:06:29.031Z,17.17
2019-02-11T00:08:57.847Z,16.27
2019-02-11T00:11:26.501Z,13.00
2019-02-11T00:13:55.149Z,11.90
2019-02-11T00:16:23.809Z,12.60
2019-02-11T00:18:52.621Z,17.00
2019-02-11T00:21:21.430Z,10.43
2019-02-11T00:23:50.205Z,11.90
2019-02-11T00:26:18.994Z,9.40
2019-02-11T00:28:47.754Z,12.90
2019-02-11T00:31:16.579Z,10.10
2019-02-11T00:33:45.475Z,10.93
2019-02-11T00:36:14.209Z,11.67
2019-02-11T00:38:42.929Z,9.20
2019-02-11T00:41:11.781Z,8.83
2019-02-11T00:43:40.563Z,8.83
2019-02-11T00:46:09.374Z,7.30
2019-02-11T00:48:38.121Z,6.83
2019-02-11T00:51:06.862Z,6.93
2019-02-11T00:53:35.591Z,6.20
2019-02-11T00:56:04.310Z,6.10
2019-02-11T00:58:33.105Z,6.23
2019-02-11T01:01:01.862Z,6.10
2019-02-11T01:03:30.695Z,6.70
2019-02-11T01:05:59.498Z,5.93
2019-02-11T01:08:28.291Z,6.13
2019-02-11T01:10:57.218Z,6.43
2019-02-11T01:13:27.822Z,5.17
2019-02-11T01:15:56.235Z,4.90
2019-02-11T01:18:24.960Z,5.73
2019-02-11T01:20:53.662Z,5.27
2019-02-11T01:23:22.296Z,5.57
2019-02-11T01:25:51.279Z,4.83
2019-02-11T01:28:19.964Z,4.37
2019-02-11T01:30:48.752Z,4.47
2019-02-11T01:33:17.548Z,3.33
2019-02-11T01:35:46.316Z,3.77
2019-02-11T01:38:15.020Z,4.13
2019-02-11T01:40:43.753Z,3.63
2019-02-11T01:43:12.463Z,3.57
2019-02-11T01:45:41.231Z,3.60
2019-02-11T01:48:09.986Z,3.23
2019-02-11T01:50:38.646Z,2.93
2019-02-11T01:53:07.401Z,4.03
2019-02-11T01:55:36.195Z,3.57
2019-02-11T01:58:04.854Z,3.20
2019-02-11T02:00:33.689Z,3.40
2019-02-11T02:03:02.385Z,3.20
2019-02-11T02:05:33.286Z,3.10
2019-02-11T02:08:02.293Z,3.07
2019-02-11T02:10:31.118Z,2.40
2019-02-11T02:12:59.733Z,2.43
2019-02-11T02:15:28.480Z,2.40
2019-02-11T02:17:57.243Z,2.63
2019-02-11T02:20:25.819Z,2.73
2019-02-11T02:22:54.497Z,2.20
2019-02-11T02:25:23.279Z,2.57
2019-02-11T02:27:51.960Z,2.57
2019-02-11T02:30:20.808Z,2.40
2019-02-11T02:32:49.554Z,2.20
2019-02-11T02:35:18.368Z,2.23
2019-02-11T02:37:47.230Z,2.37
2019-02-11T02:40:15.881Z,2.40
2019-02-11T02:42:44.469Z,3.13
2019-02-11T02:45:13.289Z,2.53
2019-02-11T02:47:42.238Z,2.60
2019-02-11T02:50:11.050Z,2.90
2019-02-11T02:52:39.676Z,3.13
2019-02-11T02:55:09.480Z,2.67
2019-02-11T02:57:38.263Z,3.40
2019-02-11T03:00:09.723Z,3.40
2019-02-11T03:02:38.503Z,3.43
2019-02-11T03:05:09.085Z,3.60
2019-02-11T03:07:37.691Z,3.17
2019-02-11T03:10:08.838Z,2.87
2019-02-11T03:12:37.514Z,2.20
2019-02-11T03:15:08.799Z,2.10
2019-02-11T03:17:37.616Z,2.00
2019-02-11T03:20:08.606Z,1.23
2019-02-11T03:22:37.408Z,1.60
2019-02-11T03:25:07.727Z,1.43
2019-02-11T03:27:36.476Z,1.70
2019-02-11T03:30:08.189Z,2.10
2019-02-11T03:32:36.988Z,1.60
2019-02-11T03:35:06.111Z,1.23
2019-02-11T03:37:34.872Z,1.40
2019-02-11T03:40:05.273Z,1.20
2019-02-11T03:42:33.980Z,1.47
2019-02-11T03:45:02.751Z,1.17
2019-02-11T03:47:31.585Z,1.10
2019-02-11T03:50:00.379Z,0.90
2019-02-11T03:52:29.043Z,0.90
2019-02-11T03:54:57.892Z,1.10
2019-02-11T03:57:26.523Z,1.00
2019-02-11T03:59:55.358Z,0.87
2019-02-11T04:02:24.185Z,1.00
2019-02-11T04:04:52.932Z,0.70
2019-02-11T04:07:21.641Z,0.73
2019-02-11T04:09:50.557Z,0.60
2019-02-11T04:12:19.214Z,0.70
2019-02-11T04:14:47.968Z,0.70
2019-02-11T04:17:16.807Z,0.60
2019-02-11T04:19:45.446Z,0.70
2019-02-11T04:22:14.145Z,0.70
2019-02-11T04:24:42.903Z,0.67
2019-02-11T04:27:11.502Z,0.60
2019-02-11T04:29:40.363Z,0.77
2019-02-11T04:32:09.192Z,1.00
2019-02-11T04:34:38.037Z,1.00
2019-02-11T04:37:06.824Z,0.90
2019-02-11T04:39:35.634Z,0.90
2019-02-11T04:42:04.379Z,0.60
2019-02-11T04:44:34.289Z,0.87
2019-02-11T04:47:03.310Z,0.70
2019-02-11T04:49:31.983Z,0.90
2019-02-11T04:52:00.846Z,0.90
2019-02-11T04:54:29.786Z,1.17
2019-02-11T04:56:58.475Z,0.67
2019-02-11T04:59:27.221Z,1.20
2019-02-11T05:01:56.081Z,0.80
2019-02-11T05:04:24.717Z,0.80
2019-02-11T05:06:53.515Z,0.80
2019-02-11T05:09:22.349Z,0.90
2019-02-11T05:11:51.036Z,1.37
2019-02-11T05:14:19.788Z,2.10
2019-02-11T05:16:48.454Z,2.13
2019-02-11T05:19:17.130Z,2.60
2019-02-11T05:21:45.902Z,1.77
2019-02-11T05:24:14.719Z,1.40
2019-02-11T05:26:43.473Z,1.50
2019-02-11T05:29:12.154Z,1.00
2019-02-11T05:31:40.844Z,0.90
2019-02-11T05:34:09.502Z,1.20
2019-02-11T05:36:38.277Z,1.10
2019-02-11T05:39:07.024Z,0.97
2019-02-11T05:41:35.751Z,2.17
2019-02-11T05:44:05.907Z,2.10
2019-02-11T05:46:34.837Z,1.47
2019-02-11T05:49:03.465Z,1.30
2019-02-11T05:51:32.129Z,1.43
2019-02-11T05:54:00.910Z,0.70
2019-02-11T05:56:29.797Z,0.87
2019-02-11T05:58:58.454Z,0.80
2019-02-11T06:01:27.246Z,0.70
2019-02-11T06:03:56.047Z,0.80
2019-02-11T06:06:24.771Z,0.77
2019-02-11T06:08:53.515Z,0.87
2019-02-11T06:11:22.190Z,1.23
2019-02-11T06:13:50.970Z,1.23
2019-02-11T06:16:19.828Z,1.20
2019-02-11T06:18:48.689Z,1.60
2019-02-11T06:21:17.426Z,1.90
2019-02-11T06:23:46.148Z,1.13
2019-02-11T06:26:15.065Z,0.90
2019-02-11T06:28:43.797Z,0.70
2019-02-11T06:31:12.691Z,0.83
2019-02-11T06:33:41.511Z,0.80
2019-02-11T06:36:12.345Z,1.20
2019-02-11T06:38:40.594Z,0.60
2019-02-11T06:41:09.610Z,0.60
2019-02-11T06:43:38.310Z,0.50
2019-02-11T06:46:07.108Z,0.70
2019-02-11T06:48:36.009Z,0.47
2019-02-11T06:51:04.943Z,0.40
2019-02-11T06:53:33.809Z,0.70
2019-02-11T06:56:02.542Z,1.10
2019-02-11T06:58:31.292Z,0.73
2019-02-11T07:01:00.042Z,0.60
2019-02-11T07:03:28.848Z,0.30
2019-02-11T07:05:57.562Z,0.60
2019-02-11T07:08:26.309Z,0.50
2019-02-11T07:10:55.902Z,0.37
2019-02-11T07:13:24.772Z,0.50
2019-02-11T07:15:53.603Z,0.40
2019-02-11T07:18:22.307Z,0.30
2019-02-11T07:20:51.086Z,0.40
2019-02-11T07:23:19.930Z,0.40
2019-02-11T07:25:48.659Z,0.27
2019-02-11T07:28:17.411Z,0.70
2019-02-11T07:30:46.135Z,0.40
2019-02-11T07:33:14.830Z,0.57
2019-02-11T07:35:43.668Z,0.30
2019-02-11T07:38:12.561Z,0.73
2019-02-11T07:40:41.334Z,0.40
2019-02-11T07:43:14.475Z,0.40
2019-02-11T07:45:44.910Z,0.70
2019-02-11T07:48:13.558Z,0.40
2019-02-11T07:50:42.302Z,0.60
2019-02-11T07:53:11.080Z,0.53
2019-02-11T07:55:39.751Z,0.40
2019-02-11T07:58:08.661Z,0.40
2019-02-11T08:00:38.146Z,0.63
2019-02-11T08:03:07.112Z,0.40
2019-02-11T08:05:36.033Z,0.67
2019-02-11T08:08:05.055Z,0.40
2019-02-11T08:10:35.102Z,0.33
2019-02-11T08:13:03.894Z,0.50
2019-02-11T08:15:38.451Z,0.60
2019-02-11T08:18:03.055Z,0.60
2019-02-11T08:20:31.995Z,0.70
2019-02-11T08:23:00.989Z,0.70
2019-02-11T08:25:29.679Z,1.00
2019-02-11T08:27:58.307Z,0.93
2019-02-11T08:30:27.205Z,1.50
2019-02-11T08:32:56.382Z,1.07
2019-02-11T08:35:25.242Z,1.13
2019-02-11T08:37:54.025Z,1.10
2019-02-11T08:40:22.852Z,1.20
2019-02-11T08:42:51.670Z,1.33
2019-02-11T08:45:20.614Z,1.37
2019-02-11T08:47:49.398Z,1.30
2019-02-11T08:50:18.152Z,0.97
2019-02-11T08:52:47.131Z,1.50
2019-02-11T08:55:15.871Z,1.53
2019-02-11T08:57:44.745Z,1.30
2019-02-11T09:00:13.722Z,1.57
2019-02-11T09:02:42.696Z,1.27
2019-02-11T09:05:11.546Z,1.47
2019-02-11T09:07:40.407Z,1.10
2019-02-11T09:10:11.527Z,1.60
2019-02-11T09:12:40.582Z,1.60
2019-02-11T09:15:11.762Z,1.50
2019-02-11T09:17:40.662Z,1.47
2019-02-11T09:20:11.267Z,1.50
2019-02-11T09:22:40.220Z,1.33
2019-02-11T09:25:10.722Z,1.87
2019-02-11T09:27:39.582Z,1.60
2019-02-11T09:30:16.446Z,2.07
2019-02-11T09:32:45.074Z,1.77
2019-02-11T09:35:14.118Z,1.97
2019-02-11T09:37:43.532Z,2.00
2019-02-11T09:40:15.368Z,2.17
2019-02-11T09:42:44.606Z,2.47
2019-02-11T09:45:19.425Z,2.40
2019-02-11T09:47:50.033Z,2.20
2019-02-11T09:50:25.041Z,2.60
2019-02-11T09:52:53.854Z,2.23
2019-02-11T09:55:25.100Z,2.30
2019-02-11T09:57:53.954Z,2.93
2019-02-11T10:00:22.917Z,2.77
2019-02-11T10:02:51.939Z,2.63
2019-02-11T10:05:21.216Z,2.40
2019-02-11T10:07:49.844Z,2.23
2019-02-11T10:10:18.704Z,2.50
2019-02-11T10:12:47.667Z,1.70
2019-02-11T10:15:16.825Z,2.40
2019-02-11T10:17:45.617Z,1.83
2019-02-11T10:20:15.957Z,1.87
2019-02-11T10:22:44.910Z,2.37
2019-02-11T10:25:16.603Z,2.00
2019-02-11T10:27:45.436Z,2.40
2019-02-11T10:30:15.590Z,1.73
2019-02-11T10:32:44.617Z,1.70
2019-02-11T10:35:14.961Z,1.97
2019-02-11T10:37:43.796Z,2.20
2019-02-11T10:40:14.067Z,2.10
2019-02-11T10:42:42.849Z,2.17
2019-02-11T10:45:13.911Z,1.80
2019-02-11T10:47:44.649Z,1.47
2019-02-11T10:50:18.943Z,1.87
2019-02-11T10:52:47.856Z,1.60
2019-02-11T10:55:21.639Z,1.97
2019-02-11T10:57:50.485Z,1.73
2019-02-11T11:00:26.207Z,2.17
2019-02-11T11:02:55.041Z,1.50
2019-02-11T11:05:23.803Z,1.50
2019-02-11T11:07:52.657Z,1.80
2019-02-11T11:10:27.106Z,2.10
2019-02-11T11:12:55.843Z,1.80
2019-02-11T11:15:24.784Z,1.47
2019-02-11T11:17:53.581Z,1.10
2019-02-11T11:20:22.307Z,1.10
2019-02-11T11:22:51.271Z,1.40
2019-02-11T11:25:20.096Z,1.07
2019-02-11T11:27:48.930Z,1.90
2019-02-11T11:30:19.102Z,1.30
2019-02-11T11:32:47.958Z,1.20
2019-02-11T11:35:18.430Z,1.17
2019-02-11T11:37:47.205Z,1.40
2019-02-11T11:40:18.070Z,1.50
2019-02-11T11:42:46.846Z,1.27
2019-02-11T11:45:20.176Z,1.47
2019-02-11T11:47:49.042Z,1.40
2019-02-11T11:50:18.286Z,1.60
2019-02-11T11:52:47.085Z,1.40
2019-02-11T11:55:19.137Z,1.40
2019-02-11T11:57:48.017Z,1.20
2019-02-11T12:00:25.171Z,2.07
2019-02-11T12:03:04.161Z,1.63
2019-02-11T12:05:24.895Z,1.50
2019-02-11T12:07:53.799Z,1.37
2019-02-11T12:10:22.703Z,1.23
2019-02-11T12:12:51.706Z,1.13
2019-02-11T12:15:27.140Z,1.40
2019-02-11T12:17:56.230Z,1.20
2019-02-11T12:20:24.866Z,1.43
2019-02-11T12:22:53.698Z,1.13
2019-02-11T12:25:22.551Z,1.30
2019-02-11T12:27:51.435Z,1.67
2019-02-11T12:30:25.792Z,1.60
2019-02-11T12:32:56.074Z,1.50
2019-02-11T12:35:25.302Z,1.90
2019-02-11T12:37:54.195Z,1.47
2019-02-11T12:40:22.927Z,1.13
2019-02-11T12:42:53.084Z,1.60
2019-02-11T12:45:24.328Z,1.37
2019-02-11T12:47:53.332Z,1.27
2019-02-11T12:50:22.213Z,1.30
2019-02-11T12:52:51.107Z,1.23
2019-02-11T12:55:20.143Z,0.90
2019-02-11T12:57:48.970Z,1.10
2019-02-11T13:00:22.985Z,1.00
2019-02-11T13:02:51.909Z,1.30
2019-02-11T13:05:23.639Z,1.57
2019-02-11T13:07:51.169Z,1.20
2019-02-11T13:10:20.499Z,1.50
2019-02-11T13:12:49.596Z,1.40
2019-02-11T13:15:53.258Z,1.30
2019-02-11T13:17:52.142Z,1.30
2019-02-11T13:20:21.077Z,1.20
2019-02-11T13:22:50.032Z,1.37
2019-02-11T13:25:19.104Z,1.43
2019-02-11T13:27:48.416Z,1.50
2019-02-11T13:30:21.946Z,1.90
2019-02-11T13:32:50.881Z,1.10
2019-02-11T13:35:19.974Z,1.40
2019-02-11T13:37:48.924Z,1.20
2019-02-11T13:40:17.872Z,1.60
2019-02-11T13:42:46.719Z,1.67
2019-02-11T13:45:18.329Z,1.30
2019-02-11T13:47:54.628Z,1.30
2019-02-11T13:50:20.866Z,1.63
2019-02-11T13:52:50.734Z,1.27
2019-02-11T13:55:19.668Z,1.20
2019-02-11T13:57:48.877Z,1.60
2019-02-11T14:00:29.209Z,1.53
2019-02-11T14:03:03.546Z,2.17
2019-02-11T14:05:33.537Z,1.60
2019-02-11T14:08:03.513Z,1.60
2019-02-11T14:10:32.329Z,1.63
2019-02-11T14:13:01.606Z,1.73
2019-02-11T14:15:30.385Z,1.77
2019-02-11T14:18:14.033Z,1.60
2019-02-11T14:20:40.326Z,1.67
2019-02-11T14:23:09.359Z,1.60
2019-02-11T14:25:43.941Z,1.50
2019-02-11T14:28:08.818Z,1.73
2019-02-11T14:30:37.540Z,1.97
2019-02-11T14:33:06.497Z,1.80
2019-02-11T14:35:35.357Z,2.07
2019-02-11T14:38:04.205Z,1.70
2019-02-11T14:40:33.044Z,1.73
2019-02-11T14:43:01.904Z,1.53
2019-02-11T14:45:30.908Z,1.70
2019-02-11T14:47:59.810Z,1.50
2019-02-11T14:50:28.568Z,2.00
2019-02-11T14:52:57.277Z,1.67
2019-02-11T14:55:26.073Z,2.23
2019-02-11T14:57:54.848Z,2.27
2019-02-11T15:00:23.698Z,2.27
2019-02-11T15:02:52.532Z,2.10
2019-02-11T15:05:21.384Z,2.60
2019-02-11T15:07:50.159Z,2.13
2019-02-11T15:10:19.723Z,2.50
2019-02-11T15:12:48.778Z,2.60
2019-02-11T15:15:17.502Z,2.23
2019-02-11T15:17:47.178Z,3.30
2019-02-11T15:20:16.885Z,1.60
2019-02-11T15:22:45.820Z,1.80
2019-02-11T15:25:18.773Z,1.87
2019-02-11T15:27:48.623Z,1.73
2019-02-11T15:30:21.646Z,1.37
2019-02-11T15:32:50.311Z,1.47
2019-02-11T15:35:19.167Z,1.60
2019-02-11T15:37:48.338Z,1.80
2019-02-11T15:40:24.885Z,1.90
2019-02-11T15:42:53.627Z,2.57
2019-02-11T15:45:23.635Z,2.10
2019-02-11T15:47:52.604Z,1.87
2019-02-11T15:50:21.545Z,1.83
2019-02-11T15:52:50.395Z,1.97
2019-02-11T15:55:20.479Z,1.53
2019-02-11T15:57:49.403Z,1.80
2019-02-11T16:00:22.918Z,1.80
2019-02-11T16:02:52.145Z,1.90
2019-02-11T16:05:23.192Z,1.90
2019-02-11T16:07:52.125Z,1.93
2019-02-11T16:10:24.009Z,2.30
2019-02-11T16:12:53.225Z,2.10
2019-02-11T16:15:22.897Z,2.07
2019-02-11T16:17:52.027Z,2.50
2019-02-11T16:20:21.052Z,3.30
2019-02-11T16:22:50.325Z,4.17
2019-02-11T16:25:19.606Z,3.27
2019-02-11T16:27:48.497Z,3.67
2019-02-11T16:30:19.876Z,3.53
2019-02-11T16:32:48.799Z,3.10
2019-02-11T16:35:18.526Z,3.60
2019-02-11T16:37:47.620Z,3.50
2019-02-11T16:40:27.254Z,3.33
2019-02-11T16:42:56.042Z,3.03
2019-02-11T16:45:24.852Z,3.03
2019-02-11T16:47:53.646Z,3.50
2019-02-11T16:50:22.497Z,2.70
2019-02-11T16:52:51.371Z,2.93
2019-02-11T16:55:20.329Z,2.40
2019-02-11T16:57:49.260Z,2.20
2019-02-11T17:00:19.762Z,2.80
2019-02-11T17:02:48.612Z,2.47
2019-02-11T17:05:17.377Z,2.57
2019-02-11T17:10:18.086Z,2.37
2019-02-11T17:12:47.024Z,2.40
2019-02-11T17:15:19.142Z,2.43
2019-02-11T17:17:48.204Z,2.57
2019-02-11T17:20:17.884Z,2.83
2019-02-11T17:22:46.953Z,2.43
2019-02-11T17:25:16.084Z,2.80
2019-02-11T17:27:44.779Z,2.73
2019-02-11T17:30:19.030Z,2.23
2019-02-11T17:32:47.815Z,2.60
2019-02-11T17:35:16.609Z,3.20
2019-02-11T17:37:45.600Z,5.40
2019-02-11T17:40:15.051Z,4.30
2019-02-11T17:42:43.882Z,3.83
2019-02-11T17:45:17.877Z,3.63
2019-02-11T17:47:46.957Z,3.60
2019-02-11T17:50:16.418Z,2.20
2019-02-11T17:52:45.251Z,2.50
2019-02-11T17:55:15.076Z,2.43
2019-02-11T17:57:43.968Z,2.90
2019-02-11T18:00:17.278Z,2.60
2019-02-11T18:02:46.140Z,3.17
2019-02-11T18:05:15.008Z,2.57
2019-02-11T18:07:43.814Z,2.33
2019-02-11T18:10:12.701Z,2.27
2019-02-11T18:12:41.488Z,2.30
2019-02-11T18:15:11.268Z,2.50
2019-02-11T18:17:40.022Z,3.23
2019-02-11T18:20:10.055Z,2.60
2019-02-11T18:22:38.820Z,2.80
2019-02-11T18:25:09.256Z,4.27
2019-02-11T18:27:38.010Z,3.93
2019-02-11T18:30:15.705Z,3.90
2019-02-11T18:32:44.572Z,6.00
2019-02-11T18:35:19.605Z,4.67
2019-02-11T18:37:48.879Z,3.40
2019-02-11T18:40:17.713Z,3.27
2019-02-11T18:42:46.537Z,3.10
2019-02-11T18:45:18.466Z,2.90
2019-02-11T18:47:47.434Z,3.70
2019-02-11T18:50:16.609Z,3.50
2019-02-11T18:52:45.556Z,6.37
2019-02-11T18:55:16.579Z,5.30
2019-02-11T18:57:45.382Z,5.40
2019-02-11T19:00:17.783Z,4.87
2019-02-11T19:02:46.714Z,4.83
2019-02-11T19:05:16.880Z,5.83
2019-02-11T19:07:45.797Z,5.10
2019-02-11T19:10:16.735Z,4.73
2019-02-11T19:12:45.614Z,4.67
2019-02-11T19:15:16.937Z,4.93
2019-02-11T19:17:45.793Z,3.50
2019-02-11T19:20:16.176Z,5.43
2019-02-11T19:22:45.042Z,4.77
2019-02-11T19:25:14.314Z,3.20
2019-02-11T19:27:43.183Z,4.23
2019-02-11T19:30:21.071Z,4.30
2019-02-11T19:32:50.048Z,4.23
2019-02-11T19:35:19.211Z,4.10
2019-02-11T19:37:48.134Z,3.80
2019-02-11T19:40:18.696Z,4.47
2019-02-11T19:42:47.467Z,5.37
2019-02-11T19:45:21.582Z,10.43
2019-02-11T19:47:50.426Z,5.77
2019-02-11T19:50:19.774Z,4.80
2019-02-11T19:52:49.027Z,4.00
2019-02-11T19:55:18.116Z,3.90
2019-02-11T19:57:47.063Z,3.57
2019-02-11T20:00:19.115Z,3.63
2019-02-11T20:02:48.406Z,3.87
2019-02-11T20:05:17.350Z,2.90
2019-02-11T20:07:46.355Z,3.40
2019-02-11T20:10:25.140Z,3.13
2019-02-11T20:12:54.134Z,3.30
2019-02-11T20:15:28.936Z,3.90
2019-02-11T20:17:57.877Z,2.93
2019-02-11T20:20:26.900Z,2.57
2019-02-11T20:22:55.708Z,2.90
2019-02-11T20:25:24.431Z,2.70
2019-02-11T20:27:53.397Z,3.00
2019-02-11T20:30:24.726Z,2.60
2019-02-11T20:32:53.506Z,3.07
2019-02-11T20:35:22.355Z,3.23
2019-02-11T20:37:51.143Z,3.50
2019-02-11T20:40:30.262Z,3.00
2019-02-11T20:42:59.221Z,2.60
2019-02-11T20:45:29.697Z,3.03
2019-02-11T20:47:58.577Z,3.47
2019-02-11T20:50:27.754Z,2.87
2019-02-11T20:52:56.902Z,3.30
2019-02-11T20:55:25.770Z,3.30
2019-02-11T20:57:57.448Z,3.27
2019-02-11T21:00:26.790Z,5.00
2019-02-11T21:02:55.569Z,4.70
2019-02-11T21:05:25.840Z,4.83
2019-02-11T21:07:54.530Z,6.13
2019-02-11T21:10:25.155Z,6.23
2019-02-11T21:12:54.183Z,5.53
2019-02-11T21:15:24.023Z,6.50
2019-02-11T21:17:52.875Z,5.90
2019-02-11T21:20:27.716Z,5.30
2019-02-11T21:22:56.569Z,5.40
2019-02-11T21:25:25.621Z,5.63
2019-02-11T21:27:56.020Z,5.50
2019-02-11T21:30:25.045Z,5.33
2019-02-11T21:32:53.935Z,4.93
2019-02-11T21:35:22.716Z,4.63
2019-02-11T21:37:51.904Z,4.23
2019-02-11T21:40:20.689Z,4.23
2019-02-11T21:42:50.319Z,4.47
2019-02-11T21:45:19.541Z,4.20
2019-02-11T21:47:48.526Z,4.43
2019-02-11T21:50:26.700Z,5.37
2019-02-11T21:52:52.076Z,5.53
2019-02-11T21:55:23.283Z,6.30
2019-02-11T21:57:52.159Z,6.27
2019-02-11T22:00:21.726Z,6.50
2019-02-11T22:02:50.622Z,4.67
2019-02-11T22:05:19.613Z,5.53
2019-02-11T22:07:48.309Z,4.53
2019-02-11T22:10:22.417Z,3.63
2019-02-11T22:12:51.590Z,3.07
2019-02-11T22:15:20.531Z,3.77
2019-02-11T22:17:49.635Z,2.67
2019-02-11T22:20:20.494Z,2.67
2019-02-11T22:22:49.397Z,3.80
2019-02-11T22:25:18.899Z,2.23
2019-02-11T22:27:48.996Z,2.87
2019-02-11T22:30:20.776Z,2.60
2019-02-11T22:32:51.097Z,3.03
2019-02-11T22:35:21.776Z,3.20
2019-02-11T22:37:53.821Z,3.40
2019-02-11T22:40:23.912Z,3.33
2019-02-11T22:42:52.839Z,3.47
2019-02-11T22:45:28.827Z,3.30
2019-02-11T22:47:57.970Z,2.37
2019-02-11T22:50:27.185Z,2.13
2019-02-11T22:52:56.154Z,1.77
2019-02-11T22:55:25.496Z,2.20
2019-02-11T22:57:54.560Z,2.03
2019-02-11T23:00:45.820Z,1.90
2019-02-11T23:03:15.075Z,1.40
2019-02-11T23:05:44.150Z,1.63
2019-02-11T23:08:13.159Z,1.30
2019-02-11T23:10:42.133Z,1.30
2019-02-11T23:13:10.912Z,1.67
2019-02-11T23:15:39.781Z,1.67
2019-02-11T23:18:08.537Z,2.00
2019-02-11T23:20:37.320Z,2.37
2019-02-11T23:23:06.178Z,2.40
2019-02-11T23:25:35.049Z,2.10
2019-02-11T23:28:03.897Z,2.13
2019-02-11T23:30:32.658Z,2.03
2019-02-11T23:33:01.389Z,1.90
2019-02-11T23:35:30.284Z,1.40
2019-02-11T23:37:59.166Z,1.10
2019-02-11T23:40:27.902Z,1.33
2019-02-11T23:42:56.787Z,1.40
2019-02-11T23:45:25.615Z,1.20
2019-02-11T23:47:54.483Z,1.40
2019-02-11T23:50:23.243Z,1.50
2019-02-11T23:52:52.169Z,1.27
2019-02-11T23:55:21.138Z,1.30
2019-02-11T23:57:50.222Z,1.30
